UAL1008 KORD-KSBA
Flight info
| Callsign | UAL1008 |
|---|---|
| Flight time | 4h 7m |
| Altitude | 34000 |
| Route | NOONY NIGHT NITWT OBH/N0456F360 DVV CHESZ Q88 HAKMN HEC PITBL2 |
| Aircraft | B738/M-SDE2E3FGHIRWXY/LB1 |
Departure
| Time | 2026-05-07 15:56 |
|---|---|
| Airport | Chicago O'Hare International Airport (KORD) |
Arrival
| Time | 2026-05-07 20:03 |
|---|---|
| Airport | Santa Barbara Municipal Airport (KSBA) |
| Time | Latitude | Longitude | Altitude | Speed | Heading |
|---|---|---|---|---|---|
| 2026-05-07 15:21 | 41.98095 | -87.90911 | 668 ft | 0 kts | 273° |
| 2026-05-07 15:44 | 41.98096 | -87.90886 | 666 ft | 4 kts | 246° |
| 2026-05-07 15:45 | 41.98112 | -87.90862 | 666 ft | 4 kts | 204° |
| 2026-05-07 15:45 | 41.98138 | -87.90854 | 667 ft | 4 kts | 179° |
| 2026-05-07 15:45 | 41.98147 | -87.90854 | 666 ft | 1 kts | 174° |
| 2026-05-07 15:48 | 41.98124 | -87.90851 | 666 ft | 6 kts | 174° |
| 2026-05-07 15:49 | 41.98060 | -87.90852 | 668 ft | 12 kts | 187° |
| 2026-05-07 15:49 | 41.97964 | -87.90873 | 668 ft | 16 kts | 188° |
| 2026-05-07 15:49 | 41.97837 | -87.90902 | 668 ft | 20 kts | 189° |
| 2026-05-07 15:49 | 41.97701 | -87.90932 | 668 ft | 19 kts | 189° |
| 2026-05-07 15:50 | 41.97602 | -87.90973 | 668 ft | 9 kts | 232° |
| 2026-05-07 15:50 | 41.97590 | -87.91005 | 665 ft | 1 kts | 248° |
| 2026-05-07 15:50 | 41.97583 | -87.91028 | 668 ft | 5 kts | 249° |
| 2026-05-07 15:50 | 41.97564 | -87.91095 | 666 ft | 10 kts | 244° |
| 2026-05-07 15:51 | 41.97508 | -87.91176 | 667 ft | 14 kts | 194° |
| 2026-05-07 15:51 | 41.97418 | -87.91102 | 668 ft | 18 kts | 141° |
| 2026-05-07 15:51 | 41.97314 | -87.90981 | 668 ft | 22 kts | 137° |
| 2026-05-07 15:51 | 41.97198 | -87.90819 | 668 ft | 26 kts | 129° |
| 2026-05-07 15:52 | 41.97145 | -87.90579 | 665 ft | 27 kts | 96° |
| 2026-05-07 15:52 | 41.97136 | -87.90330 | 668 ft | 26 kts | 89° |
| 2026-05-07 15:52 | 41.97129 | -87.90149 | 666 ft | 13 kts | 124° |
| 2026-05-07 15:52 | 41.97050 | -87.90110 | 668 ft | 12 kts | 127° |
| 2026-05-07 15:53 | 41.97041 | -87.89999 | 668 ft | 12 kts | 89° |
| 2026-05-07 15:53 | 41.97042 | -87.89887 | 668 ft | 12 kts | 89° |
| 2026-05-07 15:53 | 41.97043 | -87.89746 | 669 ft | 23 kts | 90° |
| 2026-05-07 15:53 | 41.97042 | -87.89536 | 669 ft | 22 kts | 90° |
| 2026-05-07 15:54 | 41.97024 | -87.89445 | 667 ft | 7 kts | 138° |
| 2026-05-07 15:54 | 41.96975 | -87.89437 | 669 ft | 7 kts | 180° |
| 2026-05-07 15:54 | 41.96925 | -87.89440 | 669 ft | 7 kts | 197° |
| 2026-05-07 15:54 | 41.96906 | -87.89496 | 670 ft | 7 kts | 266° |
| 2026-05-07 15:55 | 41.96905 | -87.89505 | 670 ft | 2 kts | 268° |
| 2026-05-07 15:55 | 41.96904 | -87.89695 | 670 ft | 52 kts | 270° |
| 2026-05-07 15:55 | 41.96904 | -87.90493 | 666 ft | 117 kts | 270° |
| 2026-05-07 15:55 | 41.96899 | -87.91835 | 687 ft | 167 kts | 270° |
| 2026-05-07 15:56 | 41.96923 | -87.93408 | 1412 ft | 165 kts | 270° |
| 2026-05-07 15:56 | 41.96939 | -87.94966 | 2255 ft | 174 kts | 271° |
| 2026-05-07 15:56 | 41.97034 | -87.96721 | 2564 ft | 202 kts | 275° |
| 2026-05-07 15:56 | 41.97208 | -87.98684 | 2835 ft | 221 kts | 275° |
| 2026-05-07 15:57 | 41.97405 | -88.00783 | 3326 ft | 231 kts | 276° |
| 2026-05-07 15:57 | 41.97546 | -88.02269 | 3555 ft | 242 kts | 276° |
| 2026-05-07 15:57 | 41.97752 | -88.04545 | 4477 ft | 245 kts | 276° |
| 2026-05-07 15:57 | 41.97964 | -88.06758 | 5548 ft | 241 kts | 276° |
| 2026-05-07 15:58 | 41.98180 | -88.09002 | 6361 ft | 244 kts | 276° |
| 2026-05-07 15:58 | 41.98394 | -88.11266 | 7191 ft | 244 kts | 277° |
| 2026-05-07 15:58 | 41.98611 | -88.13531 | 8079 ft | 245 kts | 277° |
| 2026-05-07 15:58 | 41.98826 | -88.15811 | 8896 ft | 247 kts | 277° |
| 2026-05-07 15:59 | 41.99041 | -88.18105 | 9793 ft | 247 kts | 278° |
| 2026-05-07 15:59 | 41.99257 | -88.20408 | 10455 ft | 254 kts | 278° |
| 2026-05-07 15:59 | 41.99487 | -88.22877 | 10644 ft | 278 kts | 278° |
| 2026-05-07 15:59 | 41.99737 | -88.25562 | 10793 ft | 300 kts | 278° |
| 2026-05-07 16:00 | 42.00000 | -88.28408 | 11140 ft | 314 kts | 278° |
| 2026-05-07 16:00 | 42.00271 | -88.31361 | 11830 ft | 318 kts | 278° |
| 2026-05-07 16:00 | 42.00541 | -88.34313 | 12621 ft | 319 kts | 278° |
| 2026-05-07 16:00 | 42.00812 | -88.37281 | 13388 ft | 320 kts | 278° |
| 2026-05-07 16:01 | 42.01084 | -88.40267 | 14100 ft | 323 kts | 278° |
| 2026-05-07 16:01 | 42.01357 | -88.43275 | 14733 ft | 325 kts | 278° |
| 2026-05-07 16:01 | 42.01632 | -88.46304 | 15370 ft | 328 kts | 278° |
| 2026-05-07 16:01 | 42.01906 | -88.49342 | 16015 ft | 330 kts | 278° |
| 2026-05-07 16:02 | 42.02184 | -88.52427 | 16639 ft | 333 kts | 278° |
| 2026-05-07 16:02 | 42.02463 | -88.55529 | 17261 ft | 335 kts | 278° |
| 2026-05-07 16:02 | 42.02742 | -88.58652 | 17900 ft | 338 kts | 278° |
| 2026-05-07 16:02 | 42.03023 | -88.61803 | 18489 ft | 340 kts | 278° |
| 2026-05-07 16:03 | 42.03305 | -88.64965 | 19055 ft | 341 kts | 278° |
| 2026-05-07 16:03 | 42.03585 | -88.68126 | 19634 ft | 342 kts | 277° |
| 2026-05-07 16:03 | 42.03867 | -88.71311 | 20202 ft | 343 kts | 277° |
| 2026-05-07 16:03 | 42.04149 | -88.74509 | 20743 ft | 345 kts | 277° |
| 2026-05-07 16:04 | 42.04432 | -88.77726 | 21248 ft | 347 kts | 278° |
| 2026-05-07 16:04 | 42.04647 | -88.80969 | 21743 ft | 349 kts | 272° |
| 2026-05-07 16:04 | 42.04549 | -88.84242 | 22264 ft | 351 kts | 268° |
| 2026-05-07 16:04 | 42.04352 | -88.87525 | 22776 ft | 353 kts | 267° |
| 2026-05-07 16:05 | 42.04149 | -88.90828 | 23231 ft | 356 kts | 267° |
| 2026-05-07 16:05 | 42.03946 | -88.94115 | 23647 ft | 358 kts | 267° |
| 2026-05-07 16:05 | 42.03739 | -88.97509 | 24043 ft | 360 kts | 267° |
| 2026-05-07 16:05 | 42.03536 | -89.00858 | 24438 ft | 360 kts | 267° |
| 2026-05-07 16:06 | 42.03333 | -89.04228 | 24792 ft | 362 kts | 267° |
| 2026-05-07 16:06 | 42.03130 | -89.07597 | 25141 ft | 364 kts | 267° |
| 2026-05-07 16:06 | 42.02924 | -89.11009 | 25496 ft | 365 kts | 267° |
| 2026-05-07 16:06 | 42.02719 | -89.14415 | 25844 ft | 367 kts | 267° |
| 2026-05-07 16:07 | 42.02512 | -89.17832 | 26189 ft | 368 kts | 267° |
| 2026-05-07 16:07 | 42.02307 | -89.21198 | 26508 ft | 370 kts | 267° |
| 2026-05-07 16:07 | 42.02091 | -89.24725 | 26850 ft | 371 kts | 267° |
| 2026-05-07 16:07 | 42.01881 | -89.28145 | 27170 ft | 372 kts | 267° |
| 2026-05-07 16:08 | 42.01667 | -89.31620 | 27493 ft | 373 kts | 267° |
| 2026-05-07 16:08 | 42.01451 | -89.35110 | 27789 ft | 375 kts | 267° |
| 2026-05-07 16:08 | 42.01233 | -89.38608 | 28097 ft | 376 kts | 267° |
| 2026-05-07 16:08 | 42.01013 | -89.42103 | 28542 ft | 374 kts | 267° |
| 2026-05-07 16:09 | 42.00795 | -89.45568 | 29036 ft | 371 kts | 267° |
| 2026-05-07 16:09 | 42.00576 | -89.49009 | 29493 ft | 369 kts | 267° |
| 2026-05-07 16:09 | 42.00358 | -89.52443 | 29884 ft | 368 kts | 268° |
| 2026-05-07 16:09 | 42.00140 | -89.55864 | 30218 ft | 367 kts | 267° |
| 2026-05-07 16:10 | 41.99921 | -89.59282 | 30503 ft | 367 kts | 267° |
| 2026-05-07 16:10 | 41.99701 | -89.62705 | 30745 ft | 368 kts | 267° |
| 2026-05-07 16:10 | 41.99478 | -89.66140 | 31003 ft | 368 kts | 267° |
| 2026-05-07 16:10 | 41.99255 | -89.69572 | 31262 ft | 369 kts | 267° |
| 2026-05-07 16:11 | 41.99032 | -89.72986 | 31519 ft | 369 kts | 267° |
| 2026-05-07 16:11 | 41.98806 | -89.76437 | 31779 ft | 369 kts | 267° |
| 2026-05-07 16:11 | 41.98579 | -89.79868 | 32034 ft | 369 kts | 267° |
| 2026-05-07 16:11 | 41.98352 | -89.83294 | 32289 ft | 369 kts | 267° |
| 2026-05-07 16:12 | 41.98123 | -89.86732 | 32544 ft | 369 kts | 267° |
| 2026-05-07 16:12 | 41.97893 | -89.90175 | 32776 ft | 369 kts | 267° |
| 2026-05-07 16:12 | 41.97663 | -89.93612 | 33002 ft | 370 kts | 267° |
| 2026-05-07 16:12 | 41.97430 | -89.97062 | 33142 ft | 373 kts | 267° |
| 2026-05-07 16:13 | 41.97194 | -90.00551 | 33251 ft | 376 kts | 267° |
| 2026-05-07 16:13 | 41.96957 | -90.04046 | 33414 ft | 377 kts | 267° |
| 2026-05-07 16:13 | 41.96716 | -90.07561 | 33653 ft | 377 kts | 267° |
| 2026-05-07 16:13 | 41.96475 | -90.11059 | 33909 ft | 376 kts | 267° |
| 2026-05-07 16:14 | 41.96233 | -90.14569 | 33967 ft | 379 kts | 267° |
| 2026-05-07 16:14 | 41.95744 | -90.21606 | 33981 ft | 377 kts | 267° |
| 2026-05-07 16:15 | 41.95254 | -90.28582 | 33989 ft | 373 kts | 267° |
| 2026-05-07 16:15 | 41.94764 | -90.35498 | 33990 ft | 371 kts | 267° |
| 2026-05-07 16:16 | 41.94274 | -90.42375 | 33987 ft | 369 kts | 267° |
| 2026-05-07 16:16 | 41.93781 | -90.49225 | 33990 ft | 368 kts | 267° |
| 2026-05-07 16:17 | 41.93286 | -90.56060 | 33998 ft | 368 kts | 267° |
| 2026-05-07 16:17 | 41.92786 | -90.62911 | 33992 ft | 369 kts | 267° |
| 2026-05-07 16:18 | 41.92279 | -90.69778 | 33997 ft | 370 kts | 266° |
| 2026-05-07 16:18 | 41.91768 | -90.76664 | 34001 ft | 371 kts | 266° |
| 2026-05-07 16:19 | 41.91250 | -90.83563 | 34000 ft | 372 kts | 266° |
| 2026-05-07 16:19 | 41.90728 | -90.90473 | 33995 ft | 373 kts | 266° |
| 2026-05-07 16:20 | 41.90204 | -90.97356 | 33984 ft | 373 kts | 266° |
| 2026-05-07 16:20 | 41.89672 | -91.04280 | 33998 ft | 373 kts | 266° |
| 2026-05-07 16:21 | 41.89135 | -91.11214 | 33983 ft | 373 kts | 266° |
| 2026-05-07 16:21 | 41.88595 | -91.18140 | 33994 ft | 373 kts | 266° |
| 2026-05-07 16:22 | 41.88050 | -91.25062 | 33992 ft | 373 kts | 266° |
| 2026-05-07 16:22 | 41.87503 | -91.31976 | 33989 ft | 372 kts | 266° |
| 2026-05-07 16:23 | 41.86951 | -91.38882 | 33969 ft | 371 kts | 266° |
| 2026-05-07 16:23 | 41.86398 | -91.45758 | 33958 ft | 370 kts | 266° |
| 2026-05-07 16:24 | 41.85842 | -91.52615 | 33963 ft | 369 kts | 266° |
| 2026-05-07 16:24 | 41.85284 | -91.59456 | 33959 ft | 369 kts | 266° |
| 2026-05-07 16:25 | 41.84723 | -91.66277 | 33958 ft | 368 kts | 265° |
| 2026-05-07 16:25 | 41.84159 | -91.73096 | 33960 ft | 368 kts | 265° |
| 2026-05-07 16:26 | 41.83615 | -91.79914 | 33963 ft | 368 kts | 266° |
| 2026-05-07 16:26 | 41.83229 | -91.86757 | 33967 ft | 368 kts | 267° |
| 2026-05-07 16:27 | 41.82868 | -91.93572 | 33954 ft | 369 kts | 267° |
| 2026-05-07 16:27 | 41.82485 | -92.00479 | 33962 ft | 370 kts | 267° |
| 2026-05-07 16:28 | 41.82094 | -92.07311 | 33965 ft | 370 kts | 267° |
| 2026-05-07 16:28 | 41.81691 | -92.14203 | 33959 ft | 371 kts | 267° |
| 2026-05-07 16:29 | 41.81284 | -92.21103 | 33964 ft | 371 kts | 267° |
| 2026-05-07 16:29 | 41.80871 | -92.28005 | 33970 ft | 372 kts | 266° |
| 2026-05-07 16:30 | 41.80454 | -92.34915 | 33971 ft | 372 kts | 266° |
| 2026-05-07 16:30 | 41.80033 | -92.41826 | 33979 ft | 372 kts | 266° |
| 2026-05-07 16:31 | 41.79608 | -92.48737 | 33986 ft | 372 kts | 266° |
| 2026-05-07 16:31 | 41.79178 | -92.55643 | 33981 ft | 372 kts | 266° |
| 2026-05-07 16:32 | 41.78745 | -92.62546 | 33984 ft | 372 kts | 266° |
| 2026-05-07 16:32 | 41.78308 | -92.69444 | 33998 ft | 372 kts | 266° |
| 2026-05-07 16:33 | 41.77866 | -92.76342 | 33999 ft | 371 kts | 266° |
| 2026-05-07 16:33 | 41.77422 | -92.83217 | 33997 ft | 371 kts | 266° |
| 2026-05-07 16:34 | 41.76973 | -92.90113 | 33974 ft | 371 kts | 266° |
| 2026-05-07 16:34 | 41.76519 | -92.97009 | 33970 ft | 371 kts | 266° |
| 2026-05-07 16:35 | 41.76061 | -93.03902 | 33977 ft | 372 kts | 266° |
| 2026-05-07 16:35 | 41.75599 | -93.10804 | 33968 ft | 372 kts | 266° |
| 2026-05-07 16:36 | 41.75132 | -93.17713 | 33975 ft | 373 kts | 266° |
| 2026-05-07 16:36 | 41.74660 | -93.24632 | 33974 ft | 373 kts | 266° |
| 2026-05-07 16:37 | 41.74184 | -93.31557 | 33993 ft | 374 kts | 265° |
| 2026-05-07 16:37 | 41.73704 | -93.38484 | 33991 ft | 374 kts | 265° |
| 2026-05-07 16:38 | 41.73261 | -93.45383 | 33999 ft | 374 kts | 266° |
| 2026-05-07 16:38 | 41.72906 | -93.52380 | 33996 ft | 375 kts | 267° |
| 2026-05-07 16:39 | 41.72561 | -93.59289 | 34000 ft | 375 kts | 266° |
| 2026-05-07 16:39 | 41.72200 | -93.66261 | 34001 ft | 375 kts | 266° |
| 2026-05-07 16:40 | 41.71830 | -93.73235 | 34000 ft | 376 kts | 266° |
| 2026-05-07 16:40 | 41.71454 | -93.80216 | 33997 ft | 376 kts | 266° |
| 2026-05-07 16:41 | 41.71073 | -93.87190 | 33992 ft | 376 kts | 266° |
| 2026-05-07 16:41 | 41.70687 | -93.94170 | 33965 ft | 376 kts | 266° |
| 2026-05-07 16:42 | 41.70298 | -94.01147 | 33968 ft | 376 kts | 266° |
| 2026-05-07 16:42 | 41.69903 | -94.08142 | 33954 ft | 377 kts | 266° |
| 2026-05-07 16:43 | 41.69505 | -94.15114 | 33963 ft | 377 kts | 266° |
| 2026-05-07 16:43 | 41.69170 | -94.20927 | 33954 ft | 377 kts | 266° |
| 2026-05-07 16:44 | 41.68763 | -94.27912 | 33969 ft | 377 kts | 265° |
| 2026-05-07 16:44 | 41.68352 | -94.34907 | 33963 ft | 377 kts | 265° |
| 2026-05-07 16:45 | 41.67936 | -94.41893 | 33968 ft | 377 kts | 265° |
| 2026-05-07 16:45 | 41.67517 | -94.48882 | 33961 ft | 377 kts | 265° |
| 2026-05-07 16:46 | 41.67092 | -94.55886 | 33971 ft | 378 kts | 265° |
| 2026-05-07 16:46 | 41.66663 | -94.62889 | 33981 ft | 379 kts | 265° |
| 2026-05-07 16:47 | 41.66228 | -94.69914 | 33965 ft | 379 kts | 265° |
| 2026-05-07 16:47 | 41.65788 | -94.76952 | 33965 ft | 380 kts | 265° |
| 2026-05-07 16:48 | 41.65342 | -94.84010 | 33953 ft | 382 kts | 265° |
| 2026-05-07 16:48 | 41.64892 | -94.91080 | 33966 ft | 381 kts | 265° |
| 2026-05-07 16:49 | 41.64438 | -94.98129 | 33965 ft | 380 kts | 265° |
| 2026-05-07 16:49 | 41.63980 | -95.05172 | 33961 ft | 380 kts | 265° |
| 2026-05-07 16:50 | 41.63520 | -95.12194 | 33969 ft | 379 kts | 265° |
| 2026-05-07 16:50 | 41.63058 | -95.19158 | 33954 ft | 378 kts | 265° |
| 2026-05-07 16:51 | 41.62591 | -95.26155 | 33952 ft | 378 kts | 264° |
| 2026-05-07 16:51 | 41.62118 | -95.33158 | 33952 ft | 378 kts | 264° |
| 2026-05-07 16:52 | 41.61642 | -95.40156 | 33957 ft | 378 kts | 264° |
| 2026-05-07 16:52 | 41.61160 | -95.47171 | 33955 ft | 379 kts | 264° |
| 2026-05-07 16:53 | 41.60674 | -95.54185 | 33960 ft | 380 kts | 264° |
| 2026-05-07 16:53 | 41.60183 | -95.61214 | 33953 ft | 380 kts | 264° |
| 2026-05-07 16:54 | 41.59687 | -95.68244 | 33955 ft | 380 kts | 264° |
| 2026-05-07 16:54 | 41.59187 | -95.75265 | 33952 ft | 381 kts | 264° |
| 2026-05-07 16:55 | 41.58681 | -95.82318 | 33953 ft | 381 kts | 264° |
| 2026-05-07 16:55 | 41.58170 | -95.89364 | 33941 ft | 381 kts | 264° |
| 2026-05-07 16:56 | 41.57659 | -95.96366 | 33939 ft | 381 kts | 264° |
| 2026-05-07 16:56 | 41.56880 | -96.06917 | 33933 ft | 380 kts | 264° |
| 2026-05-07 16:57 | 41.56355 | -96.13956 | 33938 ft | 381 kts | 264° |
| 2026-05-07 16:57 | 41.55826 | -96.21001 | 33935 ft | 381 kts | 264° |
| 2026-05-07 16:58 | 41.55291 | -96.28050 | 33938 ft | 382 kts | 264° |
| 2026-05-07 16:58 | 41.54751 | -96.35113 | 33935 ft | 383 kts | 264° |
| 2026-05-07 16:59 | 41.54206 | -96.42190 | 33935 ft | 383 kts | 263° |
| 2026-05-07 16:59 | 41.53657 | -96.49255 | 33932 ft | 383 kts | 263° |
| 2026-05-07 17:00 | 41.53103 | -96.56326 | 33939 ft | 383 kts | 263° |
| 2026-05-07 17:00 | 41.52544 | -96.63399 | 33925 ft | 382 kts | 263° |
| 2026-05-07 17:01 | 41.51984 | -96.70445 | 33937 ft | 382 kts | 263° |
| 2026-05-07 17:01 | 41.51418 | -96.77495 | 33931 ft | 381 kts | 263° |
| 2026-05-07 17:02 | 41.50854 | -96.84479 | 33942 ft | 381 kts | 263° |
| 2026-05-07 17:02 | 41.50282 | -96.91497 | 33935 ft | 381 kts | 263° |
| 2026-05-07 17:03 | 41.49706 | -96.98516 | 33934 ft | 380 kts | 263° |
| 2026-05-07 17:03 | 41.49127 | -97.05525 | 33942 ft | 380 kts | 263° |
| 2026-05-07 17:04 | 41.48541 | -97.12535 | 33942 ft | 380 kts | 263° |
| 2026-05-07 17:04 | 41.47953 | -97.19554 | 33941 ft | 382 kts | 263° |
| 2026-05-07 17:05 | 41.47358 | -97.26595 | 33926 ft | 383 kts | 263° |
| 2026-05-07 17:05 | 41.46756 | -97.33658 | 33938 ft | 384 kts | 263° |
| 2026-05-07 17:06 | 41.46150 | -97.40722 | 33928 ft | 384 kts | 263° |
| 2026-05-07 17:06 | 41.45538 | -97.47800 | 33941 ft | 385 kts | 263° |
| 2026-05-07 17:07 | 41.44922 | -97.54885 | 33941 ft | 385 kts | 263° |
| 2026-05-07 17:07 | 41.44300 | -97.61971 | 33939 ft | 385 kts | 263° |
| 2026-05-07 17:08 | 41.43674 | -97.69061 | 33926 ft | 385 kts | 263° |
| 2026-05-07 17:08 | 41.43048 | -97.76097 | 33935 ft | 385 kts | 263° |
| 2026-05-07 17:09 | 41.42414 | -97.83178 | 33930 ft | 385 kts | 263° |
| 2026-05-07 17:09 | 41.41775 | -97.90260 | 33936 ft | 385 kts | 263° |
| 2026-05-07 17:10 | 41.41132 | -97.97344 | 33930 ft | 385 kts | 263° |
| 2026-05-07 17:10 | 41.40484 | -98.04424 | 33933 ft | 385 kts | 263° |
| 2026-05-07 17:11 | 41.39831 | -98.11515 | 33926 ft | 385 kts | 263° |
| 2026-05-07 17:11 | 41.39175 | -98.18594 | 33936 ft | 386 kts | 263° |
| 2026-05-07 17:12 | 41.38513 | -98.25691 | 33931 ft | 386 kts | 263° |
| 2026-05-07 17:12 | 41.37846 | -98.32790 | 33933 ft | 387 kts | 263° |
| 2026-05-07 17:13 | 41.36747 | -98.39799 | 33941 ft | 388 kts | 256° |
| 2026-05-07 17:13 | 41.35305 | -98.46714 | 33931 ft | 388 kts | 256° |
| 2026-05-07 17:14 | 41.33861 | -98.53641 | 33932 ft | 388 kts | 256° |
| 2026-05-07 17:14 | 41.32423 | -98.60569 | 33934 ft | 389 kts | 256° |
| 2026-05-07 17:15 | 41.30985 | -98.67500 | 33930 ft | 389 kts | 256° |
| 2026-05-07 17:15 | 41.29545 | -98.74430 | 33935 ft | 389 kts | 256° |
| 2026-05-07 17:16 | 41.28098 | -98.81367 | 33927 ft | 389 kts | 256° |
| 2026-05-07 17:16 | 41.26660 | -98.88242 | 33930 ft | 389 kts | 256° |
| 2026-05-07 17:17 | 41.25205 | -98.95172 | 33932 ft | 389 kts | 256° |
| 2026-05-07 17:17 | 41.23747 | -99.02097 | 33936 ft | 389 kts | 256° |
| 2026-05-07 17:18 | 41.22286 | -99.09009 | 33929 ft | 389 kts | 256° |
| 2026-05-07 17:18 | 41.20818 | -99.15937 | 33928 ft | 389 kts | 256° |
| 2026-05-07 17:19 | 41.19347 | -99.22853 | 33928 ft | 389 kts | 256° |
| 2026-05-07 17:19 | 41.17870 | -99.29777 | 33927 ft | 390 kts | 256° |
| 2026-05-07 17:20 | 41.16388 | -99.36699 | 33923 ft | 390 kts | 256° |
| 2026-05-07 17:20 | 41.14901 | -99.43620 | 33927 ft | 390 kts | 256° |
| 2026-05-07 17:21 | 41.13406 | -99.50563 | 33954 ft | 393 kts | 256° |
| 2026-05-07 17:21 | 41.11885 | -99.57603 | 34089 ft | 400 kts | 256° |
| 2026-05-07 17:22 | 41.11115 | -99.61155 | 34244 ft | 401 kts | 256° |
| 2026-05-07 17:22 | 41.10342 | -99.64715 | 34454 ft | 401 kts | 256° |
| 2026-05-07 17:22 | 41.09570 | -99.68266 | 34648 ft | 401 kts | 256° |
| 2026-05-07 17:22 | 41.08806 | -99.71774 | 34803 ft | 402 kts | 256° |
| 2026-05-07 17:23 | 41.08019 | -99.75381 | 34975 ft | 402 kts | 256° |
| 2026-05-07 17:23 | 41.07251 | -99.78893 | 35190 ft | 402 kts | 256° |
| 2026-05-07 17:23 | 41.06473 | -99.82447 | 35432 ft | 400 kts | 256° |
| 2026-05-07 17:23 | 41.05698 | -99.85985 | 35640 ft | 400 kts | 256° |
| 2026-05-07 17:24 | 41.04921 | -99.89521 | 35775 ft | 401 kts | 256° |
| 2026-05-07 17:24 | 41.04142 | -99.93066 | 35909 ft | 401 kts | 256° |
| 2026-05-07 17:24 | 41.02569 | -100.00200 | 35931 ft | 404 kts | 256° |
| 2026-05-07 17:25 | 41.00995 | -100.07318 | 35924 ft | 402 kts | 255° |
| 2026-05-07 17:25 | 40.99425 | -100.14391 | 35924 ft | 400 kts | 255° |
| 2026-05-07 17:26 | 40.97855 | -100.21440 | 35926 ft | 398 kts | 256° |
| 2026-05-07 17:26 | 40.96286 | -100.28467 | 35927 ft | 398 kts | 255° |
| 2026-05-07 17:27 | 40.94715 | -100.35482 | 35934 ft | 398 kts | 255° |
| 2026-05-07 17:27 | 40.93136 | -100.42508 | 35947 ft | 399 kts | 255° |
| 2026-05-07 17:28 | 40.91548 | -100.49552 | 35942 ft | 401 kts | 256° |
| 2026-05-07 17:28 | 40.89948 | -100.56627 | 35939 ft | 403 kts | 255° |
| 2026-05-07 17:29 | 40.88336 | -100.63727 | 35937 ft | 404 kts | 255° |
| 2026-05-07 17:29 | 40.86713 | -100.70860 | 35944 ft | 406 kts | 255° |
| 2026-05-07 17:30 | 40.85082 | -100.78002 | 35936 ft | 407 kts | 255° |
| 2026-05-07 17:30 | 40.83445 | -100.85145 | 35943 ft | 407 kts | 255° |
| 2026-05-07 17:31 | 40.81799 | -100.92305 | 35932 ft | 407 kts | 255° |
| 2026-05-07 17:31 | 40.80149 | -100.99462 | 35938 ft | 407 kts | 255° |
| 2026-05-07 17:32 | 40.78497 | -101.06606 | 35933 ft | 407 kts | 255° |
| 2026-05-07 17:32 | 40.77120 | -101.12541 | 35934 ft | 406 kts | 255° |
| 2026-05-07 17:33 | 40.75465 | -101.19653 | 35933 ft | 406 kts | 255° |
| 2026-05-07 17:33 | 40.73536 | -101.27917 | 35941 ft | 405 kts | 255° |
| 2026-05-07 17:34 | 40.72706 | -101.31463 | 35697 ft | 405 kts | 256° |
| 2026-05-07 17:34 | 40.72146 | -101.33853 | 35762 ft | 403 kts | 256° |
| 2026-05-07 17:34 | 40.70496 | -101.40874 | 35896 ft | 400 kts | 256° |
| 2026-05-07 17:35 | 40.68853 | -101.47852 | 35950 ft | 399 kts | 256° |
| 2026-05-07 17:35 | 40.67205 | -101.54829 | 35969 ft | 399 kts | 256° |
| 2026-05-07 17:36 | 40.65549 | -101.61823 | 35978 ft | 400 kts | 256° |
| 2026-05-07 17:36 | 40.63884 | -101.68828 | 35975 ft | 402 kts | 256° |
| 2026-05-07 17:37 | 40.62218 | -101.75819 | 35966 ft | 403 kts | 256° |
| 2026-05-07 17:37 | 40.60534 | -101.82859 | 35961 ft | 404 kts | 256° |
| 2026-05-07 17:38 | 40.58843 | -101.89906 | 35956 ft | 404 kts | 256° |
| 2026-05-07 17:38 | 40.57147 | -101.96955 | 35946 ft | 404 kts | 256° |
| 2026-05-07 17:39 | 40.55444 | -102.04010 | 35941 ft | 404 kts | 256° |
| 2026-05-07 17:39 | 40.53740 | -102.11050 | 35935 ft | 404 kts | 256° |
| 2026-05-07 17:40 | 40.52034 | -102.18077 | 35936 ft | 404 kts | 256° |
| 2026-05-07 17:40 | 40.50325 | -102.25093 | 35940 ft | 403 kts | 256° |
| 2026-05-07 17:41 | 40.48611 | -102.32109 | 35942 ft | 403 kts | 256° |
| 2026-05-07 17:41 | 40.46898 | -102.39103 | 35944 ft | 402 kts | 256° |
| 2026-05-07 17:42 | 40.45180 | -102.46096 | 35942 ft | 402 kts | 256° |
| 2026-05-07 17:42 | 40.43457 | -102.53087 | 35950 ft | 402 kts | 256° |
| 2026-05-07 17:43 | 40.41744 | -102.60016 | 35956 ft | 402 kts | 256° |
| 2026-05-07 17:43 | 40.40004 | -102.67036 | 35949 ft | 402 kts | 256° |
| 2026-05-07 17:44 | 40.38285 | -102.73952 | 35960 ft | 402 kts | 256° |
| 2026-05-07 17:44 | 40.36545 | -102.80929 | 35960 ft | 402 kts | 256° |
| 2026-05-07 17:45 | 40.34802 | -102.87899 | 35980 ft | 402 kts | 256° |
| 2026-05-07 17:45 | 40.33056 | -102.94862 | 35999 ft | 403 kts | 256° |
| 2026-05-07 17:46 | 40.31300 | -103.01843 | 36010 ft | 403 kts | 256° |
| 2026-05-07 17:46 | 40.29541 | -103.08815 | 36026 ft | 403 kts | 256° |
| 2026-05-07 17:47 | 40.27781 | -103.15773 | 36039 ft | 404 kts | 256° |
| 2026-05-07 17:47 | 40.26006 | -103.22770 | 36047 ft | 405 kts | 256° |
| 2026-05-07 17:48 | 40.24226 | -103.29764 | 36042 ft | 405 kts | 256° |
| 2026-05-07 17:48 | 40.22438 | -103.36769 | 36037 ft | 406 kts | 256° |
| 2026-05-07 17:49 | 40.20642 | -103.43788 | 36023 ft | 407 kts | 256° |
| 2026-05-07 17:49 | 40.18841 | -103.50804 | 36008 ft | 408 kts | 256° |
| 2026-05-07 17:50 | 40.17028 | -103.57849 | 35998 ft | 409 kts | 256° |
| 2026-05-07 17:50 | 40.15220 | -103.64850 | 35997 ft | 410 kts | 256° |
| 2026-05-07 17:51 | 40.13393 | -103.71909 | 36012 ft | 411 kts | 256° |
| 2026-05-07 17:51 | 40.11552 | -103.78999 | 36014 ft | 412 kts | 256° |
| 2026-05-07 17:52 | 40.09702 | -103.86102 | 36003 ft | 413 kts | 256° |
| 2026-05-07 17:52 | 40.07844 | -103.93215 | 35990 ft | 414 kts | 256° |
| 2026-05-07 17:53 | 40.05980 | -104.00332 | 35989 ft | 415 kts | 256° |
| 2026-05-07 17:53 | 40.04111 | -104.07448 | 35977 ft | 415 kts | 256° |
| 2026-05-07 17:54 | 40.02236 | -104.14564 | 35982 ft | 414 kts | 256° |
| 2026-05-07 17:54 | 40.00360 | -104.21668 | 35995 ft | 414 kts | 256° |
| 2026-05-07 17:55 | 39.98482 | -104.28756 | 36013 ft | 413 kts | 256° |
| 2026-05-07 17:55 | 39.96601 | -104.35835 | 36035 ft | 412 kts | 256° |
| 2026-05-07 17:56 | 39.94726 | -104.42871 | 36044 ft | 410 kts | 256° |
| 2026-05-07 17:56 | 39.92859 | -104.49865 | 36061 ft | 408 kts | 257° |
| 2026-05-07 17:57 | 39.91309 | -104.55657 | 36078 ft | 407 kts | 257° |
| 2026-05-07 17:57 | 39.89129 | -104.63775 | 36083 ft | 406 kts | 257° |
| 2026-05-07 17:58 | 39.87260 | -104.70718 | 36084 ft | 406 kts | 257° |
| 2026-05-07 17:58 | 39.85385 | -104.77673 | 36081 ft | 408 kts | 257° |
| 2026-05-07 17:59 | 39.83496 | -104.84669 | 36082 ft | 413 kts | 257° |
| 2026-05-07 17:59 | 39.81583 | -104.91725 | 36058 ft | 413 kts | 257° |
| 2026-05-07 18:00 | 39.79685 | -104.98696 | 36067 ft | 410 kts | 257° |
| 2026-05-07 18:00 | 39.77777 | -105.05692 | 36072 ft | 408 kts | 257° |
| 2026-05-07 18:01 | 39.75892 | -105.12588 | 36076 ft | 406 kts | 257° |
| 2026-05-07 18:01 | 39.73992 | -105.19524 | 36077 ft | 404 kts | 257° |
| 2026-05-07 18:02 | 39.71163 | -105.29819 | 36072 ft | 403 kts | 257° |
| 2026-05-07 18:03 | 39.69272 | -105.36678 | 36079 ft | 404 kts | 257° |
| 2026-05-07 18:03 | 39.67375 | -105.43540 | 36083 ft | 405 kts | 256° |
| 2026-05-07 18:04 | 39.65459 | -105.50454 | 36077 ft | 408 kts | 256° |
| 2026-05-07 18:04 | 39.63532 | -105.57385 | 36119 ft | 415 kts | 256° |
| 2026-05-07 18:05 | 39.61543 | -105.64530 | 36125 ft | 422 kts | 256° |
| 2026-05-07 18:05 | 39.59536 | -105.71699 | 36121 ft | 429 kts | 255° |
| 2026-05-07 18:06 | 39.57490 | -105.78993 | 36148 ft | 431 kts | 255° |
| 2026-05-07 18:06 | 39.55445 | -105.86247 | 36154 ft | 424 kts | 255° |
| 2026-05-07 18:07 | 39.53422 | -105.93409 | 36150 ft | 422 kts | 255° |
| 2026-05-07 18:07 | 39.51394 | -106.00586 | 36148 ft | 420 kts | 255° |
| 2026-05-07 18:08 | 39.49383 | -106.07681 | 36171 ft | 419 kts | 255° |
| 2026-05-07 18:08 | 39.47369 | -106.14770 | 36203 ft | 421 kts | 255° |
| 2026-05-07 18:09 | 39.45339 | -106.21905 | 36226 ft | 429 kts | 255° |
| 2026-05-07 18:09 | 39.43250 | -106.29215 | 36221 ft | 432 kts | 255° |
| 2026-05-07 18:10 | 39.41170 | -106.36462 | 36247 ft | 433 kts | 254° |
| 2026-05-07 18:10 | 39.39070 | -106.43766 | 36247 ft | 435 kts | 254° |
| 2026-05-07 18:11 | 39.36957 | -106.51094 | 36236 ft | 436 kts | 254° |
| 2026-05-07 18:11 | 39.34838 | -106.58423 | 36224 ft | 435 kts | 254° |
| 2026-05-07 18:12 | 39.32717 | -106.65737 | 36191 ft | 434 kts | 254° |
| 2026-05-07 18:12 | 39.30602 | -106.73011 | 36205 ft | 432 kts | 254° |
| 2026-05-07 18:13 | 39.28489 | -106.80258 | 36227 ft | 431 kts | 254° |
| 2026-05-07 18:13 | 39.26373 | -106.87492 | 36217 ft | 430 kts | 254° |
| 2026-05-07 18:14 | 39.24263 | -106.94697 | 36215 ft | 429 kts | 254° |
| 2026-05-07 18:14 | 39.22148 | -107.01898 | 36211 ft | 429 kts | 254° |
| 2026-05-07 18:15 | 39.20026 | -107.09104 | 36194 ft | 431 kts | 254° |
| 2026-05-07 18:15 | 39.17892 | -107.16330 | 36175 ft | 432 kts | 254° |
| 2026-05-07 18:16 | 39.15744 | -107.23582 | 36162 ft | 434 kts | 254° |
| 2026-05-07 18:16 | 39.13579 | -107.30870 | 36134 ft | 437 kts | 254° |
| 2026-05-07 18:17 | 39.11402 | -107.38179 | 36145 ft | 438 kts | 254° |
| 2026-05-07 18:17 | 39.09212 | -107.45510 | 36152 ft | 439 kts | 254° |
| 2026-05-07 18:18 | 39.07013 | -107.52853 | 36153 ft | 440 kts | 254° |
| 2026-05-07 18:18 | 39.04805 | -107.60205 | 36147 ft | 440 kts | 254° |
| 2026-05-07 18:19 | 39.02967 | -107.66306 | 36153 ft | 438 kts | 254° |
| 2026-05-07 18:19 | 39.00766 | -107.73595 | 36162 ft | 436 kts | 253° |
| 2026-05-07 18:20 | 38.98577 | -107.80827 | 36180 ft | 433 kts | 253° |
| 2026-05-07 18:20 | 38.96391 | -107.88034 | 36200 ft | 432 kts | 253° |
| 2026-05-07 18:21 | 38.94204 | -107.95228 | 36212 ft | 433 kts | 253° |
| 2026-05-07 18:21 | 38.92007 | -108.02436 | 36220 ft | 435 kts | 253° |
| 2026-05-07 18:22 | 38.89794 | -108.09674 | 36221 ft | 436 kts | 253° |
| 2026-05-07 18:22 | 38.87566 | -108.16942 | 36233 ft | 439 kts | 253° |
| 2026-05-07 18:23 | 38.85314 | -108.24271 | 36222 ft | 443 kts | 253° |
| 2026-05-07 18:23 | 38.83041 | -108.31643 | 36195 ft | 446 kts | 253° |
| 2026-05-07 18:24 | 38.80754 | -108.39043 | 36172 ft | 447 kts | 253° |
| 2026-05-07 18:24 | 38.78457 | -108.46452 | 36150 ft | 448 kts | 253° |
| 2026-05-07 18:25 | 38.76157 | -108.53849 | 36125 ft | 447 kts | 253° |
| 2026-05-07 18:25 | 38.73856 | -108.61231 | 36134 ft | 445 kts | 253° |
| 2026-05-07 18:26 | 38.71564 | -108.68568 | 36128 ft | 443 kts | 253° |
| 2026-05-07 18:26 | 38.69291 | -108.75826 | 36132 ft | 441 kts | 253° |
| 2026-05-07 18:27 | 38.67009 | -108.83091 | 36123 ft | 439 kts | 253° |
| 2026-05-07 18:27 | 38.64727 | -108.90343 | 36120 ft | 439 kts | 253° |
| 2026-05-07 18:28 | 38.62441 | -108.97585 | 36133 ft | 440 kts | 253° |
| 2026-05-07 18:28 | 38.60145 | -109.04844 | 36128 ft | 442 kts | 252° |
| 2026-05-07 18:29 | 38.57827 | -109.12149 | 36122 ft | 444 kts | 252° |
| 2026-05-07 18:29 | 38.55498 | -109.19472 | 36125 ft | 446 kts | 252° |
| 2026-05-07 18:30 | 38.53151 | -109.26828 | 36118 ft | 449 kts | 252° |
| 2026-05-07 18:30 | 38.50790 | -109.34209 | 36115 ft | 450 kts | 252° |
| 2026-05-07 18:31 | 38.48415 | -109.41616 | 36109 ft | 450 kts | 252° |
| 2026-05-07 18:31 | 38.46035 | -109.49018 | 36107 ft | 450 kts | 252° |
| 2026-05-07 18:32 | 38.43660 | -109.56383 | 36097 ft | 448 kts | 252° |
| 2026-05-07 18:32 | 38.41293 | -109.63708 | 36097 ft | 446 kts | 252° |
| 2026-05-07 18:33 | 38.38928 | -109.71011 | 36078 ft | 445 kts | 252° |
| 2026-05-07 18:33 | 38.36566 | -109.78283 | 36079 ft | 444 kts | 252° |
| 2026-05-07 18:34 | 38.34198 | -109.85559 | 36082 ft | 446 kts | 252° |
| 2026-05-07 18:34 | 38.31819 | -109.92849 | 36087 ft | 447 kts | 251° |
| 2026-05-07 18:35 | 38.29433 | -110.00145 | 36094 ft | 450 kts | 251° |
| 2026-05-07 18:35 | 38.26829 | -110.07433 | 36076 ft | 455 kts | 247° |
| 2026-05-07 18:36 | 38.23845 | -110.14571 | 36072 ft | 459 kts | 245° |
| 2026-05-07 18:36 | 38.20808 | -110.21718 | 36077 ft | 460 kts | 245° |
| 2026-05-07 18:37 | 38.17789 | -110.28892 | 36060 ft | 459 kts | 246° |
| 2026-05-07 18:37 | 38.14795 | -110.36051 | 36072 ft | 459 kts | 246° |
| 2026-05-07 18:38 | 38.11804 | -110.43207 | 36068 ft | 459 kts | 246° |
| 2026-05-07 18:38 | 38.08807 | -110.50359 | 36067 ft | 459 kts | 245° |
| 2026-05-07 18:39 | 38.05808 | -110.57496 | 36054 ft | 458 kts | 245° |
| 2026-05-07 18:39 | 38.02807 | -110.64619 | 36066 ft | 458 kts | 245° |
| 2026-05-07 18:40 | 37.99802 | -110.71735 | 36063 ft | 457 kts | 245° |
| 2026-05-07 18:40 | 37.96797 | -110.78838 | 36058 ft | 457 kts | 245° |
| 2026-05-07 18:41 | 37.93834 | -110.85828 | 36053 ft | 458 kts | 245° |
| 2026-05-07 18:41 | 37.90855 | -110.92835 | 36056 ft | 457 kts | 245° |
| 2026-05-07 18:42 | 37.87837 | -110.99920 | 36054 ft | 457 kts | 245° |
| 2026-05-07 18:42 | 37.84819 | -111.06990 | 36057 ft | 457 kts | 245° |
| 2026-05-07 18:43 | 37.81795 | -111.14057 | 36055 ft | 457 kts | 245° |
| 2026-05-07 18:43 | 37.78766 | -111.21122 | 36055 ft | 457 kts | 245° |
| 2026-05-07 18:44 | 37.75728 | -111.28192 | 36055 ft | 458 kts | 244° |
| 2026-05-07 18:44 | 37.72684 | -111.35260 | 36058 ft | 458 kts | 244° |
| 2026-05-07 18:45 | 37.69630 | -111.42337 | 36047 ft | 459 kts | 244° |
| 2026-05-07 18:45 | 37.66565 | -111.49421 | 36058 ft | 459 kts | 244° |
| 2026-05-07 18:46 | 37.63494 | -111.56505 | 36059 ft | 460 kts | 244° |
| 2026-05-07 18:46 | 37.60419 | -111.63584 | 36047 ft | 461 kts | 244° |
| 2026-05-07 18:47 | 37.57334 | -111.70669 | 36052 ft | 461 kts | 244° |
| 2026-05-07 18:47 | 37.54240 | -111.77761 | 36061 ft | 462 kts | 244° |
| 2026-05-07 18:48 | 37.51144 | -111.84841 | 36101 ft | 461 kts | 244° |
| 2026-05-07 18:48 | 37.47678 | -111.91584 | 36114 ft | 463 kts | 236° |
| 2026-05-07 18:49 | 37.43773 | -111.98038 | 36105 ft | 463 kts | 235° |
| 2026-05-07 18:49 | 37.39919 | -112.04526 | 36092 ft | 462 kts | 236° |
| 2026-05-07 18:50 | 37.36102 | -112.11043 | 36068 ft | 463 kts | 236° |
| 2026-05-07 18:50 | 37.32290 | -112.17564 | 36052 ft | 463 kts | 236° |
| 2026-05-07 18:51 | 37.28476 | -112.24077 | 36049 ft | 463 kts | 236° |
| 2026-05-07 18:51 | 37.24646 | -112.30602 | 36051 ft | 464 kts | 236° |
| 2026-05-07 18:52 | 37.20818 | -112.37110 | 36051 ft | 463 kts | 236° |
| 2026-05-07 18:52 | 37.16984 | -112.43614 | 36041 ft | 464 kts | 236° |
| 2026-05-07 18:53 | 37.13148 | -112.50110 | 36052 ft | 464 kts | 236° |
| 2026-05-07 18:53 | 37.09305 | -112.56609 | 36048 ft | 464 kts | 236° |
| 2026-05-07 18:54 | 37.05453 | -112.63108 | 36072 ft | 465 kts | 236° |
| 2026-05-07 18:54 | 37.01582 | -112.69616 | 36106 ft | 466 kts | 235° |
| 2026-05-07 18:55 | 36.97703 | -112.76122 | 36142 ft | 467 kts | 235° |
| 2026-05-07 18:55 | 36.93818 | -112.82632 | 36173 ft | 468 kts | 235° |
| 2026-05-07 18:56 | 36.89921 | -112.89147 | 36190 ft | 468 kts | 235° |
| 2026-05-07 18:56 | 36.86020 | -112.95661 | 36202 ft | 468 kts | 235° |
| 2026-05-07 18:57 | 36.82115 | -113.02166 | 36183 ft | 468 kts | 235° |
| 2026-05-07 18:57 | 36.78230 | -113.08626 | 36154 ft | 469 kts | 235° |
| 2026-05-07 18:58 | 36.74287 | -113.15171 | 36120 ft | 469 kts | 235° |
| 2026-05-07 18:58 | 36.70392 | -113.21623 | 36086 ft | 469 kts | 235° |
| 2026-05-07 18:59 | 36.66465 | -113.28118 | 36040 ft | 470 kts | 235° |
| 2026-05-07 18:59 | 36.62529 | -113.34614 | 36042 ft | 470 kts | 235° |
| 2026-05-07 19:00 | 36.58708 | -113.41210 | 36038 ft | 469 kts | 237° |
| 2026-05-07 19:00 | 36.54964 | -113.47865 | 36031 ft | 470 kts | 237° |
| 2026-05-07 19:01 | 36.51208 | -113.54510 | 36028 ft | 470 kts | 237° |
| 2026-05-07 19:01 | 36.47431 | -113.61139 | 36026 ft | 470 kts | 237° |
| 2026-05-07 19:02 | 36.43638 | -113.67768 | 36019 ft | 471 kts | 237° |
| 2026-05-07 19:02 | 36.39843 | -113.74387 | 36019 ft | 471 kts | 236° |
| 2026-05-07 19:03 | 36.36032 | -113.81024 | 36012 ft | 472 kts | 236° |
| 2026-05-07 19:03 | 36.32218 | -113.87652 | 36015 ft | 472 kts | 236° |
| 2026-05-07 19:04 | 36.28406 | -113.94265 | 36004 ft | 472 kts | 236° |
| 2026-05-07 19:04 | 36.24589 | -114.00874 | 36012 ft | 472 kts | 236° |
| 2026-05-07 19:05 | 36.20766 | -114.07481 | 36016 ft | 472 kts | 236° |
| 2026-05-07 19:05 | 36.17561 | -114.13011 | 36009 ft | 472 kts | 236° |
| 2026-05-07 19:06 | 36.13751 | -114.19573 | 36016 ft | 473 kts | 236° |
| 2026-05-07 19:06 | 36.07960 | -114.29450 | 36010 ft | 473 kts | 232° |
| 2026-05-07 19:07 | 36.03629 | -114.35603 | 36021 ft | 474 kts | 229° |
| 2026-05-07 19:07 | 35.99173 | -114.41617 | 36013 ft | 475 kts | 229° |
| 2026-05-07 19:08 | 35.94746 | -114.47659 | 36013 ft | 475 kts | 229° |
| 2026-05-07 19:08 | 35.90338 | -114.53738 | 36022 ft | 475 kts | 229° |
| 2026-05-07 19:09 | 35.85944 | -114.59805 | 36030 ft | 475 kts | 229° |
| 2026-05-07 19:09 | 35.81530 | -114.65885 | 36036 ft | 475 kts | 229° |
| 2026-05-07 19:10 | 35.77118 | -114.71948 | 36034 ft | 475 kts | 229° |
| 2026-05-07 19:10 | 35.72698 | -114.78011 | 36025 ft | 475 kts | 229° |
| 2026-05-07 19:11 | 35.68290 | -114.84050 | 36032 ft | 474 kts | 229° |
| 2026-05-07 19:11 | 35.63894 | -114.90066 | 36022 ft | 472 kts | 229° |
| 2026-05-07 19:12 | 35.59517 | -114.96070 | 36033 ft | 471 kts | 229° |
| 2026-05-07 19:12 | 35.55145 | -115.02060 | 36032 ft | 471 kts | 229° |
| 2026-05-07 19:13 | 35.50796 | -115.08088 | 36029 ft | 470 kts | 233° |
| 2026-05-07 19:13 | 35.47224 | -115.14779 | 36035 ft | 469 kts | 240° |
| 2026-05-07 19:14 | 35.43845 | -115.21626 | 36046 ft | 469 kts | 240° |
| 2026-05-07 19:14 | 35.40442 | -115.28458 | 36045 ft | 470 kts | 240° |
| 2026-05-07 19:15 | 35.36990 | -115.35290 | 36053 ft | 471 kts | 240° |
| 2026-05-07 19:15 | 35.33530 | -115.42092 | 36051 ft | 472 kts | 239° |
| 2026-05-07 19:16 | 35.30039 | -115.48938 | 36049 ft | 473 kts | 239° |
| 2026-05-07 19:16 | 35.26556 | -115.55760 | 36042 ft | 473 kts | 239° |
| 2026-05-07 19:17 | 35.23089 | -115.62537 | 36040 ft | 472 kts | 239° |
| 2026-05-07 19:17 | 35.19578 | -115.69390 | 36039 ft | 472 kts | 239° |
| 2026-05-07 19:18 | 35.16114 | -115.76137 | 36033 ft | 471 kts | 239° |
| 2026-05-07 19:18 | 35.12629 | -115.82912 | 36029 ft | 471 kts | 239° |
| 2026-05-07 19:19 | 35.09139 | -115.89683 | 36015 ft | 471 kts | 239° |
| 2026-05-07 19:19 | 35.05649 | -115.96440 | 36013 ft | 470 kts | 239° |
| 2026-05-07 19:20 | 35.02165 | -116.03175 | 36010 ft | 469 kts | 239° |
| 2026-05-07 19:20 | 34.98680 | -116.09896 | 35999 ft | 469 kts | 239° |
| 2026-05-07 19:21 | 34.95187 | -116.16623 | 35991 ft | 469 kts | 239° |
| 2026-05-07 19:21 | 34.91700 | -116.23324 | 35996 ft | 468 kts | 239° |
| 2026-05-07 19:22 | 34.88206 | -116.30025 | 35982 ft | 468 kts | 239° |
| 2026-05-07 19:22 | 34.84713 | -116.36716 | 35988 ft | 467 kts | 239° |
| 2026-05-07 19:23 | 34.81225 | -116.43383 | 36002 ft | 467 kts | 239° |
| 2026-05-07 19:23 | 34.79677 | -116.46832 | 35982 ft | 463 kts | 253° |
| 2026-05-07 19:23 | 34.78898 | -116.50600 | 36035 ft | 458 kts | 262° |
| 2026-05-07 19:24 | 34.77817 | -116.58241 | 36034 ft | 458 kts | 263° |
| 2026-05-07 19:24 | 34.76770 | -116.65897 | 36042 ft | 459 kts | 263° |
| 2026-05-07 19:25 | 34.75675 | -116.73506 | 36045 ft | 460 kts | 262° |
| 2026-05-07 19:25 | 34.74531 | -116.81195 | 36046 ft | 459 kts | 262° |
| 2026-05-07 19:26 | 34.73382 | -116.88841 | 36039 ft | 459 kts | 262° |
| 2026-05-07 19:26 | 34.72229 | -116.96477 | 36027 ft | 459 kts | 262° |
| 2026-05-07 19:27 | 34.71079 | -117.04071 | 36017 ft | 459 kts | 262° |
| 2026-05-07 19:27 | 34.69919 | -117.11705 | 36050 ft | 459 kts | 262° |
| 2026-05-07 19:28 | 34.68756 | -117.19325 | 36079 ft | 459 kts | 262° |
| 2026-05-07 19:28 | 34.67586 | -117.26953 | 36111 ft | 459 kts | 262° |
| 2026-05-07 19:29 | 34.66415 | -117.34562 | 36124 ft | 458 kts | 262° |
| 2026-05-07 19:29 | 34.65241 | -117.42152 | 36127 ft | 456 kts | 262° |
| 2026-05-07 19:30 | 34.64067 | -117.49711 | 36114 ft | 455 kts | 262° |
| 2026-05-07 19:30 | 34.62891 | -117.57249 | 36099 ft | 454 kts | 261° |
| 2026-05-07 19:31 | 34.61715 | -117.64756 | 36076 ft | 453 kts | 261° |
| 2026-05-07 19:31 | 34.60528 | -117.72308 | 36044 ft | 457 kts | 261° |
| 2026-05-07 19:32 | 34.59329 | -117.79898 | 36053 ft | 457 kts | 261° |
| 2026-05-07 19:32 | 34.58128 | -117.87469 | 35858 ft | 459 kts | 261° |
| 2026-05-07 19:33 | 34.57524 | -117.91269 | 35464 ft | 457 kts | 261° |
| 2026-05-07 19:33 | 34.56922 | -117.95042 | 35012 ft | 453 kts | 261° |
| 2026-05-07 19:33 | 34.56323 | -117.98784 | 34601 ft | 450 kts | 261° |
| 2026-05-07 19:33 | 34.55738 | -118.02437 | 34175 ft | 448 kts | 261° |
| 2026-05-07 19:34 | 34.55143 | -118.06145 | 33691 ft | 446 kts | 260° |
| 2026-05-07 19:34 | 34.54553 | -118.09820 | 33250 ft | 442 kts | 260° |
| 2026-05-07 19:34 | 34.53964 | -118.13473 | 32815 ft | 439 kts | 260° |
| 2026-05-07 19:34 | 34.53380 | -118.17097 | 32388 ft | 436 kts | 260° |
| 2026-05-07 19:35 | 34.52798 | -118.20694 | 31965 ft | 433 kts | 260° |
| 2026-05-07 19:35 | 34.52220 | -118.24262 | 31557 ft | 430 kts | 260° |
| 2026-05-07 19:35 | 34.51646 | -118.27806 | 31143 ft | 427 kts | 260° |
| 2026-05-07 19:35 | 34.51074 | -118.31330 | 30735 ft | 425 kts | 260° |
| 2026-05-07 19:36 | 34.50503 | -118.34830 | 30335 ft | 422 kts | 260° |
| 2026-05-07 19:36 | 34.49921 | -118.38316 | 29894 ft | 420 kts | 258° |
| 2026-05-07 19:36 | 34.49136 | -118.41708 | 29447 ft | 418 kts | 253° |
| 2026-05-07 19:36 | 34.48205 | -118.45033 | 29015 ft | 415 kts | 251° |
| 2026-05-07 19:37 | 34.47241 | -118.48307 | 28608 ft | 411 kts | 251° |
| 2026-05-07 19:37 | 34.46286 | -118.51558 | 28192 ft | 408 kts | 252° |
| 2026-05-07 19:37 | 34.45356 | -118.54787 | 27779 ft | 405 kts | 252° |
| 2026-05-07 19:37 | 34.44446 | -118.58003 | 27374 ft | 401 kts | 252° |
| 2026-05-07 19:38 | 34.43556 | -118.61189 | 26974 ft | 399 kts | 252° |
| 2026-05-07 19:38 | 34.42673 | -118.64367 | 26577 ft | 396 kts | 253° |
| 2026-05-07 19:38 | 34.41796 | -118.67525 | 26171 ft | 394 kts | 252° |
| 2026-05-07 19:38 | 34.40926 | -118.70660 | 25775 ft | 392 kts | 252° |
| 2026-05-07 19:39 | 34.40057 | -118.73783 | 25394 ft | 390 kts | 252° |
| 2026-05-07 19:39 | 34.39192 | -118.76891 | 25008 ft | 389 kts | 252° |
| 2026-05-07 19:39 | 34.38329 | -118.79983 | 24625 ft | 388 kts | 252° |
| 2026-05-07 19:39 | 34.37467 | -118.83068 | 24224 ft | 387 kts | 253° |
| 2026-05-07 19:40 | 34.36882 | -118.86232 | 23845 ft | 383 kts | 265° |
| 2026-05-07 19:40 | 34.36665 | -118.89424 | 23479 ft | 380 kts | 268° |
| 2026-05-07 19:40 | 34.36498 | -118.92618 | 23085 ft | 378 kts | 268° |
| 2026-05-07 19:40 | 34.36327 | -118.95771 | 22719 ft | 375 kts | 268° |
| 2026-05-07 19:41 | 34.36138 | -118.98909 | 22358 ft | 372 kts | 267° |
| 2026-05-07 19:41 | 34.35934 | -119.02016 | 22014 ft | 369 kts | 267° |
| 2026-05-07 19:41 | 34.35722 | -119.05096 | 21678 ft | 366 kts | 266° |
| 2026-05-07 19:41 | 34.35508 | -119.08161 | 21352 ft | 364 kts | 266° |
| 2026-05-07 19:42 | 34.35302 | -119.11204 | 21003 ft | 362 kts | 268° |
| 2026-05-07 19:42 | 34.35299 | -119.14261 | 20508 ft | 365 kts | 274° |
| 2026-05-07 19:42 | 34.35455 | -119.17327 | 20038 ft | 367 kts | 276° |
| 2026-05-07 19:42 | 34.35651 | -119.20419 | 19549 ft | 369 kts | 276° |
| 2026-05-07 19:43 | 34.35842 | -119.23532 | 19038 ft | 372 kts | 275° |
| 2026-05-07 19:43 | 34.36017 | -119.26666 | 18539 ft | 374 kts | 275° |
| 2026-05-07 19:43 | 34.36176 | -119.29818 | 17978 ft | 377 kts | 275° |
| 2026-05-07 19:43 | 34.36326 | -119.32986 | 17444 ft | 377 kts | 274° |
| 2026-05-07 19:44 | 34.36469 | -119.36117 | 16919 ft | 378 kts | 274° |
| 2026-05-07 19:44 | 34.36612 | -119.39289 | 16408 ft | 377 kts | 274° |
| 2026-05-07 19:44 | 34.36753 | -119.42455 | 15902 ft | 377 kts | 274° |
| 2026-05-07 19:44 | 34.36894 | -119.45624 | 15405 ft | 376 kts | 274° |
| 2026-05-07 19:45 | 34.37033 | -119.48777 | 14887 ft | 376 kts | 274° |
| 2026-05-07 19:45 | 34.37132 | -119.51943 | 14391 ft | 375 kts | 272° |
| 2026-05-07 19:45 | 34.37145 | -119.55092 | 13846 ft | 375 kts | 271° |
| 2026-05-07 19:45 | 34.37136 | -119.58194 | 13487 ft | 359 kts | 271° |
| 2026-05-07 19:46 | 34.37136 | -119.61127 | 13353 ft | 339 kts | 271° |
| 2026-05-07 19:46 | 34.37144 | -119.63901 | 13137 ft | 323 kts | 271° |
| 2026-05-07 19:46 | 34.37157 | -119.66610 | 12617 ft | 319 kts | 271° |
| 2026-05-07 19:46 | 34.37124 | -119.69288 | 12029 ft | 319 kts | 267° |
| 2026-05-07 19:47 | 34.36930 | -119.71957 | 11496 ft | 317 kts | 264° |
| 2026-05-07 19:47 | 34.36693 | -119.74580 | 11116 ft | 310 kts | 264° |
| 2026-05-07 19:47 | 34.36471 | -119.77117 | 10895 ft | 297 kts | 264° |
| 2026-05-07 19:47 | 34.36269 | -119.79573 | 10553 ft | 291 kts | 264° |
| 2026-05-07 19:48 | 34.36077 | -119.81986 | 10191 ft | 285 kts | 264° |
| 2026-05-07 19:48 | 34.35890 | -119.84363 | 9791 ft | 282 kts | 265° |
| 2026-05-07 19:48 | 34.35744 | -119.86718 | 9332 ft | 280 kts | 266° |
| 2026-05-07 19:48 | 34.35621 | -119.89058 | 8876 ft | 278 kts | 266° |
| 2026-05-07 19:49 | 34.35503 | -119.91379 | 8452 ft | 275 kts | 266° |
| 2026-05-07 19:49 | 34.35384 | -119.93683 | 8021 ft | 273 kts | 266° |
| 2026-05-07 19:49 | 34.35266 | -119.95920 | 7609 ft | 271 kts | 266° |
| 2026-05-07 19:49 | 34.35146 | -119.98189 | 7203 ft | 269 kts | 266° |
| 2026-05-07 19:50 | 34.35025 | -120.00431 | 6794 ft | 266 kts | 266° |
| 2026-05-07 19:50 | 34.34904 | -120.02659 | 6394 ft | 264 kts | 266° |
| 2026-05-07 19:50 | 34.34784 | -120.04865 | 5947 ft | 264 kts | 267° |
| 2026-05-07 19:50 | 34.34663 | -120.07079 | 5527 ft | 262 kts | 267° |
| 2026-05-07 19:51 | 34.34546 | -120.09214 | 5197 ft | 259 kts | 267° |
| 2026-05-07 19:51 | 34.34427 | -120.11386 | 4866 ft | 259 kts | 268° |
| 2026-05-07 19:51 | 34.34347 | -120.12823 | 4641 ft | 258 kts | 268° |
| 2026-05-07 19:51 | 34.34185 | -120.15720 | 4181 ft | 257 kts | 268° |
| 2026-05-07 19:52 | 34.34057 | -120.17844 | 4051 ft | 260 kts | 267° |
| 2026-05-07 19:52 | 34.33915 | -120.20020 | 4040 ft | 257 kts | 261° |
| 2026-05-07 19:52 | 34.33442 | -120.22056 | 3965 ft | 243 kts | 255° |
| 2026-05-07 19:52 | 34.32761 | -120.23827 | 3981 ft | 226 kts | 231° |
| 2026-05-07 19:53 | 34.31479 | -120.24914 | 3749 ft | 235 kts | 198° |
| 2026-05-07 19:53 | 34.30367 | -120.25084 | 3724 ft | 249 kts | 176° |
| 2026-05-07 19:53 | 34.28644 | -120.24423 | 3647 ft | 270 kts | 146° |
| 2026-05-07 19:53 | 34.27338 | -120.22821 | 3561 ft | 269 kts | 117° |
| 2026-05-07 19:54 | 34.26816 | -120.20703 | 3479 ft | 262 kts | 90° |
| 2026-05-07 19:54 | 34.26861 | -120.18516 | 3403 ft | 260 kts | 84° |
| 2026-05-07 19:54 | 34.26986 | -120.16340 | 3310 ft | 260 kts | 83° |
| 2026-05-07 19:54 | 34.27126 | -120.14160 | 3209 ft | 259 kts | 83° |
| 2026-05-07 19:55 | 34.27270 | -120.11991 | 3140 ft | 259 kts | 83° |
| 2026-05-07 19:55 | 34.27415 | -120.09842 | 3057 ft | 260 kts | 83° |
| 2026-05-07 19:55 | 34.27566 | -120.07672 | 2978 ft | 259 kts | 83° |
| 2026-05-07 19:55 | 34.27726 | -120.05493 | 2902 ft | 258 kts | 83° |
| 2026-05-07 19:56 | 34.27890 | -120.03322 | 2820 ft | 258 kts | 83° |
| 2026-05-07 19:56 | 34.28057 | -120.01157 | 2742 ft | 258 kts | 83° |
| 2026-05-07 19:56 | 34.28229 | -119.98996 | 2663 ft | 259 kts | 83° |
| 2026-05-07 19:56 | 34.28403 | -119.96830 | 2590 ft | 257 kts | 83° |
| 2026-05-07 19:57 | 34.28579 | -119.94712 | 2504 ft | 256 kts | 83° |
| 2026-05-07 19:57 | 34.28762 | -119.92575 | 2438 ft | 255 kts | 82° |
| 2026-05-07 19:57 | 34.28946 | -119.90440 | 2364 ft | 255 kts | 83° |
| 2026-05-07 19:57 | 34.29127 | -119.88350 | 2278 ft | 245 kts | 83° |
| 2026-05-07 19:58 | 34.29304 | -119.86340 | 2219 ft | 236 kts | 83° |
| 2026-05-07 19:58 | 34.29484 | -119.84381 | 2166 ft | 233 kts | 83° |
| 2026-05-07 19:58 | 34.29687 | -119.82477 | 2115 ft | 224 kts | 75° |
| 2026-05-07 19:58 | 34.30494 | -119.80931 | 2077 ft | 217 kts | 37° |
| 2026-05-07 19:59 | 34.31737 | -119.79919 | 2101 ft | 217 kts | 31° |
| 2026-05-07 19:59 | 34.32999 | -119.78925 | 2087 ft | 214 kts | 31° |
| 2026-05-07 19:59 | 34.34217 | -119.77961 | 2003 ft | 203 kts | 32° |
| 2026-05-07 19:59 | 34.35363 | -119.77054 | 1890 ft | 193 kts | 31° |
| 2026-05-07 20:00 | 34.36462 | -119.76181 | 1801 ft | 186 kts | 31° |
| 2026-05-07 20:00 | 34.37558 | -119.75385 | 1776 ft | 182 kts | 17° |
| 2026-05-07 20:00 | 34.38791 | -119.75453 | 1500 ft | 183 kts | 328° |
| 2026-05-07 20:00 | 34.39742 | -119.76395 | 1320 ft | 175 kts | 314° |
| 2026-05-07 20:01 | 34.40585 | -119.77434 | 1195 ft | 167 kts | 316° |
| 2026-05-07 20:01 | 34.41373 | -119.78398 | 1289 ft | 160 kts | 315° |
| 2026-05-07 20:01 | 34.42078 | -119.79349 | 1314 ft | 145 kts | 310° |
| 2026-05-07 20:01 | 34.42613 | -119.80362 | 925 ft | 146 kts | 296° |
| 2026-05-07 20:02 | 34.42860 | -119.81549 | 418 ft | 144 kts | 266° |
| 2026-05-07 20:02 | 34.42812 | -119.82712 | 156 ft | 136 kts | 263° |
| 2026-05-07 20:02 | 34.42789 | -119.83889 | 27 ft | 134 kts | 264° |
| 2026-05-07 20:02 | 34.42764 | -119.84807 | 18 ft | 78 kts | 268° |
| 2026-05-07 20:03 | 34.42755 | -119.85210 | 19 ft | 25 kts | 269° |
| 2026-05-07 20:03 | 34.42753 | -119.85335 | 21 ft | 13 kts | 268° |
| 2026-05-07 20:03 | 34.42735 | -119.85440 | 21 ft | 13 kts | 217° |
| 2026-05-07 20:03 | 34.42657 | -119.85420 | 21 ft | 13 kts | 132° |
| 2026-05-07 20:04 | 34.42641 | -119.85321 | 19 ft | 12 kts | 88° |
| 2026-05-07 20:04 | 34.42644 | -119.85218 | 19 ft | 12 kts | 88° |
| 2026-05-07 20:04 | 34.42645 | -119.85121 | 18 ft | 12 kts | 89° |
| 2026-05-07 20:04 | 34.42647 | -119.85023 | 17 ft | 11 kts | 88° |
| 2026-05-07 20:05 | 34.42649 | -119.84928 | 16 ft | 11 kts | 88° |
| 2026-05-07 20:05 | 34.42652 | -119.84836 | 15 ft | 11 kts | 89° |
| 2026-05-07 20:05 | 34.42653 | -119.84746 | 16 ft | 10 kts | 89° |
| 2026-05-07 20:05 | 34.42655 | -119.84657 | 16 ft | 11 kts | 89° |
| 2026-05-07 20:06 | 34.42656 | -119.84553 | 17 ft | 14 kts | 87° |
| 2026-05-07 20:06 | 34.42660 | -119.84422 | 18 ft | 17 kts | 89° |
| 2026-05-07 20:06 | 34.42663 | -119.84271 | 20 ft | 19 kts | 89° |
| 2026-05-07 20:06 | 34.42665 | -119.84133 | 22 ft | 10 kts | 88° |
| 2026-05-07 20:07 | 34.42667 | -119.84036 | 23 ft | 13 kts | 88° |
| 2026-05-07 20:07 | 34.42670 | -119.83916 | 23 ft | 16 kts | 88° |
| 2026-05-07 20:07 | 34.42627 | -119.83823 | 22 ft | 15 kts | 165° |
| 2026-05-07 20:07 | 34.42528 | -119.83791 | 25 ft | 14 kts | 165° |
| 2026-05-07 20:08 | 34.42491 | -119.83779 | 24 ft | 3 kts | 165° |
| 2026-05-07 20:08 | 34.42474 | -119.83756 | 24 ft | 6 kts | 111° |
| 2026-05-07 20:08 | 34.42458 | -119.83710 | 22 ft | 3 kts | 122° |
| 2026-05-07 20:08 | 34.42455 | -119.83704 | 22 ft | 0 kts | 123° |